Time;durP1;ratioP1;P1;durP2;ratioP2;P2;SDS_P1;SDS_P2;PMS_P1;PMS_P2;Temp;Humidity;BMP_temperature;BMP_pressure;BME280_temperature;BME280_humidity;BME280_pressure;Samples;Min_cycle;Max_cycle;Signal;HPM_P1;HPM_P2
2023/01/11 00:00:19;;;;;;;0.70;0.70;;;;;;;;;;4935712;29;20636;-75
2023/01/11 00:02:45;;;;;;;0.70;0.70;;;;;;;;;;4935293;29;20292;-76
2023/01/11 00:05:11;;;;;;;0.70;0.70;;;;;;;;;;4935748;29;20211;-75
2023/01/11 00:07:39;;;;;;;0.70;0.70;;;;;;;;;;4935658;29;20203;-75
2023/01/11 00:10:05;;;;;;;0.70;0.70;;;;;;;;;;4935694;29;20714;-75
2023/01/11 00:12:31;;;;;;;0.70;0.70;;;;;;;;;;4935217;29;20398;-76
2023/01/11 00:14:57;;;;;;;0.90;0.90;;;;;;;;;;4935543;29;20690;-76
2023/01/11 00:17:23;;;;;;;0.70;0.70;;;;;;;;;;4935355;29;20186;-75
2023/01/11 00:19:49;;;;;;;0.80;0.80;;;;;;;;;;4935328;29;20190;-75
2023/01/11 00:22:15;;;;;;;0.80;0.80;;;;;;;;;;4935383;29;20180;-75
2023/01/11 00:24:41;;;;;;;0.63;0.63;;;;;;;;;;4934914;29;20202;-76
2023/01/11 00:27:07;;;;;;;0.70;0.70;;;;;;;;;;4935304;29;20179;-75
2023/01/11 00:29:33;;;;;;;0.70;0.70;;;;;;;;;;4935320;29;20211;-75
2023/01/11 00:31:59;;;;;;;0.70;0.70;;;;;;;;;;4935257;29;20629;-74
2023/01/11 00:34:25;;;;;;;0.80;0.80;;;;;;;;;;4934608;29;20293;-75
2023/01/11 00:36:51;;;;;;;0.70;0.70;;;;;;;;;;4935599;29;20190;-75
2023/01/11 00:39:17;;;;;;;0.70;0.70;;;;;;;;;;4935446;29;20179;-75
2023/01/11 00:50:02;;;;;;;0.83;0.83;;;;;;;;;;4935574;29;20222;-75
2023/01/11 00:52:28;;;;;;;0.80;0.80;;;;;;;;;;4935347;29;20175;-75
2023/01/11 00:54:54;;;;;;;0.70;0.70;;;;;;;;;;4935320;29;20711;-75
2023/01/11 00:57:20;;;;;;;0.80;0.80;;;;;;;;;;4934878;29;20209;-75
2023/01/11 00:59:46;;;;;;;0.80;0.80;;;;;;;;;;4934552;29;20226;-74
2023/01/11 01:02:12;;;;;;;0.70;0.70;;;;;;;;;;4934643;29;20207;-75
2023/01/11 01:04:38;;;;;;;0.60;0.60;;;;;;;;;;4934034;29;20202;-75
2023/01/11 01:07:04;;;;;;;0.80;0.80;;;;;;;;;;4935124;29;20202;-75
2023/01/11 01:09:31;;;;;;;0.70;0.70;;;;;;;;;;4934469;29;20221;-75
2023/01/11 01:11:57;;;;;;;0.80;0.80;;;;;;;;;;4934792;29;20183;-75
2023/01/11 01:14:27;;;;;;;0.70;0.70;;;;;;;;;;4933950;29;20207;-75
2023/01/11 01:16:57;;;;;;;0.70;0.70;;;;;;;;;;4934693;29;20191;-75
2023/01/11 01:19:26;;;;;;;0.60;0.60;;;;;;;;;;4934602;29;20210;-75
2023/01/11 01:21:52;;;;;;;0.77;0.77;;;;;;;;;;4934742;29;20183;-75
2023/01/11 01:24:18;;;;;;;0.60;0.60;;;;;;;;;;4934138;29;20262;-75
2023/01/11 01:26:44;;;;;;;0.70;0.70;;;;;;;;;;4934321;29;20262;-75
2023/01/11 01:29:10;;;;;;;0.70;0.70;;;;;;;;;;4934497;29;20186;-75
2023/01/11 01:31:36;;;;;;;0.73;0.73;;;;;;;;;;4934115;29;20178;-75
2023/01/11 01:34:02;;;;;;;0.80;0.80;;;;;;;;;;4933966;29;20198;-76
2023/01/11 01:36:28;;;;;;;0.80;0.80;;;;;;;;;;4934504;29;20183;-75
2023/01/11 01:38:54;;;;;;;0.70;0.70;;;;;;;;;;4934221;29;20182;-75
2023/01/11 01:41:20;;;;;;;0.63;0.63;;;;;;;;;;4935495;29;20199;-74
2023/01/11 01:43:51;;;;;;;0.60;0.60;;;;;;;;;;4933821;29;20214;-75
2023/01/11 01:46:18;;;;;;;0.73;0.73;;;;;;;;;;4934378;29;20203;-76
2023/01/11 01:48:47;;;;;;;0.60;0.60;;;;;;;;;;4934775;29;20270;-75
2023/01/11 01:51:16;;;;;;;0.77;0.77;;;;;;;;;;4934106;29;20222;-75
2023/01/11 01:53:44;;;;;;;0.80;0.80;;;;;;;;;;4935097;29;20266;-76
2023/01/11 01:56:13;;;;;;;0.70;0.70;;;;;;;;;;4938040;29;20225;-75
2023/01/11 01:58:43;;;;;;;0.60;0.60;;;;;;;;;;4937858;29;20644;-75
2023/01/11 02:03:54;;;;;;;0.67;0.67;;;;;;;;;;4937541;29;20271;-75
2023/01/11 02:06:22;;;;;;;0.77;0.77;;;;;;;;;;4937825;29;20210;-75
2023/01/11 02:08:54;;;;;;;0.70;0.70;;;;;;;;;;4937726;29;20266;-75
2023/01/11 02:11:29;;;;;;;0.60;0.60;;;;;;;;;;4937522;29;20207;-75
2023/01/11 02:13:56;;;;;;;0.70;0.70;;;;;;;;;;4937441;29;20262;-75
2023/01/11 02:16:22;;;;;;;0.70;0.70;;;;;;;;;;4937762;29;20198;-75
2023/01/11 02:18:48;;;;;;;0.60;0.60;;;;;;;;;;4937523;29;20679;-75
2023/01/11 02:21:21;;;;;;;0.70;0.70;;;;;;;;;;4937593;29;20175;-76
2023/01/11 02:23:49;;;;;;;0.60;0.60;;;;;;;;;;4936936;29;20183;-75
2023/01/11 02:26:34;;;;;;;0.70;0.70;;;;;;;;;;4937572;29;20245;-75
2023/01/11 02:29:07;;;;;;;0.70;0.70;;;;;;;;;;4937335;29;20728;-75
2023/01/11 02:31:36;;;;;;;0.60;0.60;;;;;;;;;;4937256;29;20734;-75
2023/01/11 02:34:21;;;;;;;0.70;0.70;;;;;;;;;;4936494;29;20191;-76
2023/01/11 02:37:07;;;;;;;0.70;0.70;;;;;;;;;;4937310;29;20183;-75
2023/01/11 02:39:41;;;;;;;0.70;0.70;;;;;;;;;;4937335;29;20187;-75
2023/01/11 02:45:15;;;;;;;0.60;0.60;;;;;;;;;;4936731;29;20569;-75
2023/01/11 02:48:01;;;;;;;0.60;0.60;;;;;;;;;;4907181;29;20187;-75
2023/01/11 02:50:30;;;;;;;0.70;0.70;;;;;;;;;;4937113;29;20230;-76
2023/01/11 02:53:02;;;;;;;0.80;0.80;;;;;;;;;;4936224;29;20175;-76
2023/01/11 02:55:34;;;;;;;0.70;0.70;;;;;;;;;;4937197;29;20203;-75
2023/01/11 02:58:01;;;;;;;0.77;0.77;;;;;;;;;;4936828;29;20176;-76
2023/01/11 03:00:27;;;;;;;0.60;0.60;;;;;;;;;;4937011;29;20180;-75
2023/01/11 03:03:07;;;;;;;0.70;0.70;;;;;;;;;;4936212;29;20180;-75
2023/01/11 03:05:34;;;;;;;0.70;0.70;;;;;;;;;;4935370;29;20792;-75
2023/01/11 03:08:03;;;;;;;0.60;0.60;;;;;;;;;;4936745;29;20179;-75
2023/01/11 03:10:49;;;;;;;0.70;0.70;;;;;;;;;;4936756;29;20351;-76
2023/01/11 03:13:15;;;;;;;0.63;0.63;;;;;;;;;;4936130;29;20392;-75
2023/01/11 03:16:00;;;;;;;0.70;0.70;;;;;;;;;;4936572;29;20321;-75
2023/01/11 03:18:29;;;;;;;0.73;0.73;;;;;;;;;;4936617;29;20179;-76
2023/01/11 03:21:16;;;;;;;0.70;0.70;;;;;;;;;;4936403;29;20216;-75
2023/01/11 03:23:48;;;;;;;0.67;0.67;;;;;;;;;;4936108;29;20213;-75
2023/01/11 03:26:19;;;;;;;0.70;0.70;;;;;;;;;;4936209;29;20226;-76
2023/01/11 03:29:05;;;;;;;0.60;0.60;;;;;;;;;;4936379;29;20183;-75
2023/01/11 03:31:48;;;;;;;0.70;0.70;;;;;;;;;;4936481;29;20226;-76
2023/01/11 03:34:29;;;;;;;0.60;0.60;;;;;;;;;;4935649;29;20567;-76
2023/01/11 03:36:59;;;;;;;0.70;0.70;;;;;;;;;;4936129;29;20656;-74
2023/01/11 03:39:27;;;;;;;0.70;0.70;;;;;;;;;;4936174;29;20206;-76
2023/01/11 03:41:56;;;;;;;0.60;0.60;;;;;;;;;;4936209;29;20186;-76
2023/01/11 03:44:23;;;;;;;0.70;0.70;;;;;;;;;;4935227;29;20214;-75
2023/01/11 03:46:54;;;;;;;0.77;0.77;;;;;;;;;;4935961;29;20179;-75
2023/01/11 03:49:25;;;;;;;0.67;0.67;;;;;;;;;;4935642;29;20171;-75
2023/01/11 03:51:51;;;;;;;0.70;0.70;;;;;;;;;;4936112;29;20269;-75
2023/01/11 03:54:21;;;;;;;0.77;0.77;;;;;;;;;;4935431;29;20250;-75
2023/01/11 03:56:51;;;;;;;0.60;0.60;;;;;;;;;;4935897;29;20185;-76
2023/01/11 03:59:17;;;;;;;0.60;0.60;;;;;;;;;;4935616;29;20206;-75
2023/01/11 04:01:44;;;;;;;0.70;0.70;;;;;;;;;;4935710;29;20278;-75
2023/01/11 04:04:10;;;;;;;0.70;0.70;;;;;;;;;;4934936;29;20674;-75
2023/01/11 04:06:37;;;;;;;0.80;0.80;;;;;;;;;;4935973;29;20171;-75
2023/01/11 04:09:03;;;;;;;0.63;0.63;;;;;;;;;;4935584;29;20179;-76
2023/01/11 04:11:29;;;;;;;0.70;0.70;;;;;;;;;;4935485;29;20217;-76
2023/01/11 04:13:55;;;;;;;0.70;0.70;;;;;;;;;;4934918;29;20203;-75
2023/01/11 04:16:21;;;;;;;0.60;0.60;;;;;;;;;;4934847;29;20293;-76
2023/01/11 04:18:47;;;;;;;0.77;0.77;;;;;;;;;;4935528;29;20197;-75
2023/01/11 04:21:13;;;;;;;0.70;0.70;;;;;;;;;;4935409;29;20191;-76
2023/01/11 04:23:39;;;;;;;0.70;0.70;;;;;;;;;;4934780;29;20182;-76
2023/01/11 04:26:05;;;;;;;0.80;0.80;;;;;;;;;;4935165;29;20222;-76
2023/01/11 04:28:31;;;;;;;0.77;0.77;;;;;;;;;;4935050;29;20186;-76
2023/01/11 04:30:57;;;;;;;0.70;0.70;;;;;;;;;;4934981;29;20207;-76
2023/01/11 04:33:23;;;;;;;0.80;0.80;;;;;;;;;;4934670;29;20221;-76
2023/01/11 04:35:49;;;;;;;0.70;0.70;;;;;;;;;;4935182;29;20199;-75
2023/01/11 04:38:15;;;;;;;0.60;0.60;;;;;;;;;;4935129;29;20192;-76
2023/01/11 04:40:41;;;;;;;0.80;0.80;;;;;;;;;;4934871;29;20246;-75
2023/01/11 04:43:07;;;;;;;0.70;0.70;;;;;;;;;;4934471;29;20237;-74
2023/01/11 04:45:33;;;;;;;0.60;0.60;;;;;;;;;;4934721;29;20281;-76
2023/01/11 04:47:59;;;;;;;0.70;0.70;;;;;;;;;;4935082;29;20583;-75
2023/01/11 04:50:26;;;;;;;0.70;0.70;;;;;;;;;;4934791;29;20616;-75
2023/01/11 04:52:53;;;;;;;0.70;0.70;;;;;;;;;;4934530;29;20183;-75
2023/01/11 04:55:19;;;;;;;0.73;0.73;;;;;;;;;;4934568;29;20214;-76
2023/01/11 04:57:46;;;;;;;0.70;0.70;;;;;;;;;;4934714;29;20293;-75
2023/01/11 05:00:14;;;;;;;0.60;0.60;;;;;;;;;;4934555;29;20199;-75
2023/01/11 05:02:40;;;;;;;0.60;0.60;;;;;;;;;;4934319;29;20332;-75
2023/01/11 05:05:07;;;;;;;0.70;0.70;;;;;;;;;;4934814;29;20202;-75
2023/01/11 05:07:33;;;;;;;0.70;0.70;;;;;;;;;;4934702;29;20203;-74
2023/01/11 05:09:59;;;;;;;0.70;0.70;;;;;;;;;;4934622;29;20215;-75
2023/01/11 05:12:25;;;;;;;0.70;0.70;;;;;;;;;;4934350;29;20186;-75
2023/01/11 05:14:51;;;;;;;0.63;0.63;;;;;;;;;;4933886;29;20199;-75
2023/01/11 05:17:17;;;;;;;0.60;0.60;;;;;;;;;;4934684;29;20183;-74
2023/01/11 05:19:43;;;;;;;0.70;0.70;;;;;;;;;;4934325;29;20187;-75
2023/01/11 05:22:09;;;;;;;0.80;0.80;;;;;;;;;;4934575;29;20218;-74
2023/01/11 05:24:35;;;;;;;0.80;0.80;;;;;;;;;;4934911;29;20239;-75
2023/01/11 05:27:02;;;;;;;0.60;0.60;;;;;;;;;;4935597;29;20183;-75
2023/01/11 05:29:28;;;;;;;0.80;0.80;;;;;;;;;;4934804;29;20833;-75
2023/01/11 05:31:54;;;;;;;0.70;0.70;;;;;;;;;;4935297;29;20183;-75
2023/01/11 05:34:20;;;;;;;0.70;0.70;;;;;;;;;;4978549;23;20690;-79
2023/01/11 05:36:46;;;;;;;0.70;0.70;;;;;;;;;;4954550;29;20581;-78
2023/01/11 05:39:12;;;;;;;0.73;0.73;;;;;;;;;;4954708;29;20222;-79
2023/01/11 05:41:38;;;;;;;0.70;0.70;;;;;;;;;;4954237;29;20307;-79
2023/01/11 05:46:49;;;;;;;0.60;0.60;;;;;;;;;;4953996;29;20193;-79
2023/01/11 05:49:15;;;;;;;0.70;0.70;;;;;;;;;;4953446;29;20647;-77
2023/01/11 05:51:42;;;;;;;0.70;0.70;;;;;;;;;;4953269;29;20214;-77
2023/01/11 05:54:12;;;;;;;0.70;0.70;;;;;;;;;;4952635;28;20269;-76
2023/01/11 05:56:38;;;;;;;0.60;0.60;;;;;;;;;;4952855;29;20284;-76
2023/01/11 05:59:04;;;;;;;0.70;0.70;;;;;;;;;;4952977;29;20225;-76
2023/01/11 06:01:30;;;;;;;0.70;0.70;;;;;;;;;;4952809;29;20181;-77
2023/01/11 06:03:56;;;;;;;0.67;0.67;;;;;;;;;;4955695;29;20182;-76
2023/01/11 06:06:22;;;;;;;0.70;0.70;;;;;;;;;;4952973;29;20206;-76
2023/01/11 06:08:48;;;;;;;0.80;0.80;;;;;;;;;;4953136;29;20206;-79
2023/01/11 06:11:15;;;;;;;0.70;0.70;;;;;;;;;;4953275;29;20541;-78
2023/01/11 06:13:41;;;;;;;0.60;0.60;;;;;;;;;;4952563;29;20652;-79
2023/01/11 06:16:11;;;;;;;0.73;0.73;;;;;;;;;;4953042;29;20561;-78
2023/01/11 06:18:45;;;;;;;0.63;0.63;;;;;;;;;;4953102;29;20707;-75
2023/01/11 06:21:11;;;;;;;0.73;0.73;;;;;;;;;;4952697;29;20253;-76
2023/01/11 06:23:38;;;;;;;0.70;0.70;;;;;;;;;;4947255;29;20647;-77
2023/01/11 06:26:06;;;;;;;0.67;0.67;;;;;;;;;;4948963;28;20218;-77
2023/01/11 06:28:32;;;;;;;0.60;0.60;;;;;;;;;;4933875;29;20198;-76
2023/01/11 06:30:58;;;;;;;0.60;0.60;;;;;;;;;;4951861;29;20249;-76
2023/01/11 06:33:25;;;;;;;0.70;0.70;;;;;;;;;;4950877;29;20221;-78
2023/01/11 06:35:51;;;;;;;0.70;0.70;;;;;;;;;;4951844;28;20203;-76
2023/01/11 06:38:18;;;;;;;0.73;0.73;;;;;;;;;;4952464;29;20189;-77
2023/01/11 06:40:49;;;;;;;0.60;0.60;;;;;;;;;;4951737;28;20178;-76
2023/01/11 06:43:15;;;;;;;0.60;0.60;;;;;;;;;;4955100;29;20209;-77
2023/01/11 06:45:42;;;;;;;0.70;0.70;;;;;;;;;;4955492;28;20602;-78
2023/01/11 06:48:08;;;;;;;0.60;0.60;;;;;;;;;;4955638;29;20557;-77
2023/01/11 06:50:34;;;;;;;0.70;0.70;;;;;;;;;;4955268;29;20683;-77
2023/01/11 06:53:01;;;;;;;0.77;0.77;;;;;;;;;;4948944;29;20210;-76
2023/01/11 06:55:27;;;;;;;0.73;0.73;;;;;;;;;;4955352;28;20226;-77
2023/01/11 06:57:54;;;;;;;0.80;0.80;;;;;;;;;;4955553;29;20574;-76
2023/01/11 07:00:20;;;;;;;0.87;0.87;;;;;;;;;;4955812;29;20218;-76
2023/01/11 07:02:46;;;;;;;0.70;0.70;;;;;;;;;;4937883;29;20292;-77
2023/01/11 07:05:13;;;;;;;0.80;0.80;;;;;;;;;;4955458;28;20244;-76
2023/01/11 07:07:39;;;;;;;0.70;0.70;;;;;;;;;;4955504;29;20179;-76
2023/01/11 07:10:07;;;;;;;0.70;0.70;;;;;;;;;;4955840;29;20221;-77
2023/01/11 07:12:33;;;;;;;0.77;0.77;;;;;;;;;;4955292;29;20179;-76
2023/01/11 07:14:59;;;;;;;0.77;0.77;;;;;;;;;;4955308;28;20229;-76
2023/01/11 07:17:25;;;;;;;0.77;0.77;;;;;;;;;;4955245;29;20261;-77
2023/01/11 07:19:51;;;;;;;0.80;0.80;;;;;;;;;;4955069;29;20675;-76
2023/01/11 07:22:17;;;;;;;0.70;0.70;;;;;;;;;;4954862;29;20283;-78
2023/01/11 07:24:43;;;;;;;0.77;0.77;;;;;;;;;;4954026;29;20283;-77
2023/01/11 07:27:10;;;;;;;0.60;0.60;;;;;;;;;;4953797;29;20183;-78
2023/01/11 07:29:36;;;;;;;0.80;0.80;;;;;;;;;;4953990;29;20179;-77
2023/01/11 07:32:03;;;;;;;0.80;0.80;;;;;;;;;;4954421;29;20190;-77
2023/01/11 07:34:29;;;;;;;0.70;0.70;;;;;;;;;;4954006;29;20234;-77
2023/01/11 07:36:55;;;;;;;0.77;0.77;;;;;;;;;;4954675;29;20206;-77
2023/01/11 07:39:21;;;;;;;0.70;0.70;;;;;;;;;;4954513;29;20182;-77
2023/01/11 07:44:31;;;;;;;0.70;0.70;;;;;;;;;;4951816;29;20257;-77
2023/01/11 07:46:57;;;;;;;0.70;0.70;;;;;;;;;;4954367;29;20174;-77
2023/01/11 07:49:23;;;;;;;0.77;0.77;;;;;;;;;;4954042;28;20262;-77
2023/01/11 07:51:50;;;;;;;0.70;0.70;;;;;;;;;;4953739;28;20269;-77
2023/01/11 07:54:17;;;;;;;0.70;0.70;;;;;;;;;;4966688;28;20193;-77
2023/01/11 07:56:43;;;;;;;0.70;0.70;;;;;;;;;;4964543;28;20174;-77
2023/01/11 07:59:09;;;;;;;0.70;0.70;;;;;;;;;;4957131;28;20253;-77
2023/01/11 08:01:35;;;;;;;0.70;0.70;;;;;;;;;;4954579;29;20174;-77
2023/01/11 08:04:02;;;;;;;0.70;0.70;;;;;;;;;;4953994;28;20213;-77
2023/01/11 08:06:28;;;;;;;0.80;0.80;;;;;;;;;;4955892;29;20210;-75
2023/01/11 08:08:54;;;;;;;0.70;0.70;;;;;;;;;;4956065;29;20182;-75
2023/01/11 08:16:48;;;;;;;0.70;0.70;;;;;;;;;;4954478;29;20259;-74
2023/01/11 08:19:14;;;;;;;0.60;0.60;;;;;;;;;;4957098;29;20175;-74
2023/01/11 08:21:43;;;;;;;0.60;0.60;;;;;;;;;;4956870;29;20286;-77
2023/01/11 08:24:09;;;;;;;0.70;0.70;;;;;;;;;;4953611;28;20194;-78
2023/01/11 08:26:35;;;;;;;0.60;0.60;;;;;;;;;;4956051;28;20214;-77
2023/01/11 08:29:01;;;;;;;0.80;0.80;;;;;;;;;;4974391;28;20194;-76
2023/01/11 08:31:27;;;;;;;0.80;0.80;;;;;;;;;;4973992;28;20356;-77
2023/01/11 08:33:53;;;;;;;0.70;0.70;;;;;;;;;;4965632;28;20218;-78
2023/01/11 08:36:19;;;;;;;0.70;0.70;;;;;;;;;;4955933;29;20206;-76
2023/01/11 08:38:45;;;;;;;0.80;0.80;;;;;;;;;;4955764;29;20197;-76
2023/01/11 08:41:11;;;;;;;0.60;0.60;;;;;;;;;;4955910;29;20186;-75
2023/01/11 08:43:40;;;;;;;0.70;0.70;;;;;;;;;;4954778;29;20178;-76
2023/01/11 08:46:07;;;;;;;0.80;0.80;;;;;;;;;;4955588;29;20206;-77
2023/01/11 08:48:32;;;;;;;0.60;0.60;;;;;;;;;;4954257;29;20271;-77
2023/01/11 08:50:58;;;;;;;0.60;0.60;;;;;;;;;;4953650;29;20300;-77
2023/01/11 08:53:24;;;;;;;0.80;0.80;;;;;;;;;;4953161;29;20179;-76
2023/01/11 08:55:51;;;;;;;0.70;0.70;;;;;;;;;;4961918;28;20334;-75
2023/01/11 08:58:17;;;;;;;0.77;0.77;;;;;;;;;;4964132;28;20265;-76
2023/01/11 09:00:43;;;;;;;0.60;0.60;;;;;;;;;;4971099;28;20212;-75
2023/01/11 09:03:12;;;;;;;0.80;0.80;;;;;;;;;;4972284;28;20193;-74
2023/01/11 09:05:38;;;;;;;0.70;0.70;;;;;;;;;;4965451;28;20325;-76
2023/01/11 09:08:05;;;;;;;0.60;0.60;;;;;;;;;;4958096;28;20197;-76
2023/01/11 09:10:31;;;;;;;0.70;0.70;;;;;;;;;;4956485;29;20202;-76
2023/01/11 09:12:57;;;;;;;0.70;0.70;;;;;;;;;;4963363;29;20194;-76
2023/01/11 09:15:24;;;;;;;0.80;0.80;;;;;;;;;;4960836;29;20428;-76
2023/01/11 09:17:50;;;;;;;0.70;0.70;;;;;;;;;;4954385;29;20214;-76
2023/01/11 09:20:16;;;;;;;0.80;0.80;;;;;;;;;;4953617;29;20636;-76
2023/01/11 09:22:52;;;;;;;0.70;0.70;;;;;;;;;;4953191;29;20299;-77
2023/01/11 09:25:18;;;;;;;0.60;0.60;;;;;;;;;;4936374;29;20675;-76
2023/01/11 09:27:48;;;;;;;0.70;0.70;;;;;;;;;;4953482;29;20175;-77
2023/01/11 09:30:15;;;;;;;0.70;0.70;;;;;;;;;;4953633;29;20652;-74
2023/01/11 09:32:41;;;;;;;0.70;0.70;;;;;;;;;;4951874;29;20590;-75
2023/01/11 09:35:08;;;;;;;0.60;0.60;;;;;;;;;;4952932;29;20209;-74
2023/01/11 09:37:38;;;;;;;0.80;0.80;;;;;;;;;;4953236;29;20182;-74
2023/01/11 09:40:05;;;;;;;0.63;0.63;;;;;;;;;;4953286;29;20197;-74
2023/01/11 09:42:37;;;;;;;0.70;0.70;;;;;;;;;;4952767;29;20191;-76
2023/01/11 09:45:06;;;;;;;0.60;0.60;;;;;;;;;;4953375;28;20206;-75
2023/01/11 09:47:35;;;;;;;0.67;0.67;;;;;;;;;;4953023;29;20205;-75
2023/01/11 09:50:05;;;;;;;0.80;0.80;;;;;;;;;;4955792;28;20213;-74
2023/01/11 09:52:37;;;;;;;0.67;0.67;;;;;;;;;;4956655;28;20633;-73
2023/01/11 09:55:04;;;;;;;0.60;0.60;;;;;;;;;;4953642;28;20248;-75
2023/01/11 09:57:50;;;;;;;0.60;0.60;;;;;;;;;;4953220;29;20206;-75
2023/01/11 10:00:30;;;;;;;0.70;0.70;;;;;;;;;;4952561;28;20580;-74
2023/01/11 10:03:09;;;;;;;0.70;0.70;;;;;;;;;;4952761;29;20182;-74
2023/01/11 10:06:01;;;;;;;0.80;0.80;;;;;;;;;;4952710;29;20199;-73
2023/01/11 10:08:49;;;;;;;0.70;0.70;;;;;;;;;;4953223;29;20214;-75
2023/01/11 10:11:22;;;;;;;0.80;0.80;;;;;;;;;;4952862;29;20639;-75
2023/01/11 10:14:07;;;;;;;0.60;0.60;;;;;;;;;;4952535;28;20286;-74
2023/01/11 10:16:55;;;;;;;0.60;0.60;;;;;;;;;;4956495;28;20179;-74
2023/01/11 10:19:44;;;;;;;0.80;0.80;;;;;;;;;;4952720;28;20249;-75
2023/01/11 10:22:22;;;;;;;0.77;0.77;;;;;;;;;;4956660;29;20291;-74
2023/01/11 10:24:55;;;;;;;0.50;0.50;;;;;;;;;;4955819;29;20213;-74
2023/01/11 10:27:34;;;;;;;0.60;0.60;;;;;;;;;;4956257;29;20174;-74
2023/01/11 10:30:22;;;;;;;0.70;0.70;;;;;;;;;;4956560;29;20214;-74
2023/01/11 10:32:56;;;;;;;0.70;0.70;;;;;;;;;;4956151;29;20202;-73
2023/01/11 10:35:42;;;;;;;0.70;0.70;;;;;;;;;;4957026;29;20203;-74
2023/01/11 10:38:29;;;;;;;0.77;0.77;;;;;;;;;;4958272;29;20178;-73
2023/01/11 10:41:03;;;;;;;0.70;0.70;;;;;;;;;;4957751;29;20213;-74
2023/01/11 10:43:31;;;;;;;0.77;0.77;;;;;;;;;;4957398;29;20170;-74
2023/01/11 10:46:00;;;;;;;0.70;0.70;;;;;;;;;;4958310;29;20263;-75
2023/01/11 10:48:30;;;;;;;0.67;0.67;;;;;;;;;;4958145;29;20186;-75
2023/01/11 10:51:04;;;;;;;0.60;0.60;;;;;;;;;;4958215;28;20233;-74
2023/01/11 10:53:42;;;;;;;0.70;0.70;;;;;;;;;;4957465;28;20179;-75
2023/01/11 10:56:11;;;;;;;0.60;0.60;;;;;;;;;;4952014;29;20265;-75
2023/01/11 10:58:59;;;;;;;0.70;0.70;;;;;;;;;;4954298;29;20178;-75
2023/01/11 11:01:37;;;;;;;0.70;0.70;;;;;;;;;;4954288;29;20175;-74
2023/01/11 11:04:12;;;;;;;0.70;0.70;;;;;;;;;;4936486;29;20202;-75
2023/01/11 11:06:51;;;;;;;0.60;0.60;;;;;;;;;;4954151;29;20781;-75
2023/01/11 11:09:26;;;;;;;0.53;0.53;;;;;;;;;;4953306;29;20186;-75
2023/01/11 11:11:55;;;;;;;0.70;0.70;;;;;;;;;;4952456;29;20229;-75
2023/01/11 11:14:33;;;;;;;0.60;0.60;;;;;;;;;;4953711;29;20206;-74
2023/01/11 11:17:22;;;;;;;0.80;0.80;;;;;;;;;;4953892;29;20607;-75
2023/01/11 11:19:48;;;;;;;0.60;0.60;;;;;;;;;;4925308;28;20187;-75
2023/01/11 11:22:14;;;;;;;0.73;0.73;;;;;;;;;;4957532;28;20183;-75
2023/01/11 11:24:47;;;;;;;0.70;0.70;;;;;;;;;;4954587;28;20206;-75
2023/01/11 11:27:20;;;;;;;0.60;0.60;;;;;;;;;;4953836;28;20639;-75
2023/01/11 11:29:54;;;;;;;0.70;0.70;;;;;;;;;;4962447;28;20186;-75
2023/01/11 11:32:23;;;;;;;0.67;0.67;;;;;;;;;;4975414;28;20643;-73
2023/01/11 11:34:49;;;;;;;0.57;0.57;;;;;;;;;;4973187;28;20214;-73
2023/01/11 11:37:23;;;;;;;0.60;0.60;;;;;;;;;;4961341;28;20182;-75
2023/01/11 11:39:50;;;;;;;0.73;0.73;;;;;;;;;;4970065;28;20203;-74
2023/01/11 11:42:17;;;;;;;0.67;0.67;;;;;;;;;;4967630;28;20554;-76
2023/01/11 11:44:43;;;;;;;0.53;0.53;;;;;;;;;;4967548;28;20197;-75
2023/01/11 11:47:14;;;;;;;0.60;0.60;;;;;;;;;;4974708;28;20197;-75
2023/01/11 11:49:41;;;;;;;0.50;0.50;;;;;;;;;;4974515;28;20174;-75
2023/01/11 11:52:11;;;;;;;0.70;0.70;;;;;;;;;;4974318;28;20185;-76
2023/01/11 11:54:42;;;;;;;0.67;0.67;;;;;;;;;;4973545;28;20198;-76
2023/01/11 11:57:22;;;;;;;0.70;0.70;;;;;;;;;;4973916;28;20252;-75
2023/01/11 11:59:48;;;;;;;0.73;0.73;;;;;;;;;;4973979;28;20231;-75
2023/01/11 12:02:24;;;;;;;0.50;0.50;;;;;;;;;;4973785;28;20826;-74
2023/01/11 12:04:50;;;;;;;0.60;0.60;;;;;;;;;;4973411;28;20205;-76
2023/01/11 12:07:20;;;;;;;0.70;0.70;;;;;;;;;;4973654;28;20240;-75
2023/01/11 12:09:48;;;;;;;0.60;0.60;;;;;;;;;;4973474;28;20182;-75
2023/01/11 12:12:21;;;;;;;0.60;0.60;;;;;;;;;;4972285;28;20196;-74
2023/01/11 12:15:05;;;;;;;0.53;0.53;;;;;;;;;;4966808;28;20200;-76
2023/01/11 12:17:31;;;;;;;0.60;0.60;;;;;;;;;;4973246;28;20177;-75
2023/01/11 12:19:57;;;;;;;0.70;0.70;;;;;;;;;;4964964;28;20182;-75
2023/01/11 12:22:24;;;;;;;0.60;0.60;;;;;;;;;;4964580;28;20189;-75
2023/01/11 12:25:20;;;;;;;0.70;0.70;;;;;;;;;;4973237;28;20206;-75
2023/01/11 12:27:58;;;;;;;0.67;0.67;;;;;;;;;;4973478;28;20189;-75
2023/01/11 12:30:35;;;;;;;0.70;0.70;;;;;;;;;;4973466;28;20217;-75
2023/01/11 12:33:06;;;;;;;0.60;0.60;;;;;;;;;;4968712;28;20189;-75
2023/01/11 12:35:35;;;;;;;0.60;0.60;;;;;;;;;;4953856;29;20206;-75
2023/01/11 12:38:11;;;;;;;0.60;0.60;;;;;;;;;;4953821;28;20186;-75
2023/01/11 12:41:00;;;;;;;0.60;0.60;;;;;;;;;;4953744;29;20178;-75
2023/01/11 12:43:45;;;;;;;0.60;0.60;;;;;;;;;;4953282;29;20187;-75
2023/01/11 12:46:14;;;;;;;0.70;0.70;;;;;;;;;;4953336;29;20210;-75
2023/01/11 12:48:48;;;;;;;0.60;0.60;;;;;;;;;;4953991;29;20183;-75
2023/01/11 12:51:25;;;;;;;0.60;0.60;;;;;;;;;;4953987;29;20648;-75
2023/01/11 12:53:54;;;;;;;0.50;0.50;;;;;;;;;;4953390;29;20179;-75
2023/01/11 12:56:26;;;;;;;0.50;0.50;;;;;;;;;;4953381;29;20198;-76
2023/01/11 12:58:58;;;;;;;0.50;0.50;;;;;;;;;;4953491;29;20551;-75
2023/01/11 13:01:24;;;;;;;0.57;0.57;;;;;;;;;;4953472;29;20179;-75
2023/01/11 13:04:19;;;;;;;0.60;0.60;;;;;;;;;;4952811;29;20185;-75
2023/01/11 13:06:48;;;;;;;0.60;0.60;;;;;;;;;;4953709;29;20194;-75
2023/01/11 13:09:14;;;;;;;0.60;0.60;;;;;;;;;;4953905;29;20182;-74
2023/01/11 13:11:59;;;;;;;0.50;0.50;;;;;;;;;;4953798;29;20567;-75
2023/01/11 13:14:37;;;;;;;0.70;0.70;;;;;;;;;;4961919;28;20212;-76
2023/01/11 13:17:23;;;;;;;0.50;0.50;;;;;;;;;;4972866;28;20166;-74
2023/01/11 13:19:51;;;;;;;0.60;0.60;;;;;;;;;;4972879;28;20178;-75
2023/01/11 13:22:20;;;;;;;0.60;0.60;;;;;;;;;;4967956;28;20167;-74
2023/01/11 13:24:47;;;;;;;0.60;0.60;;;;;;;;;;4977990;28;20296;-74
2023/01/11 13:27:16;;;;;;;0.60;0.60;;;;;;;;;;4977268;29;20185;-74
2023/01/11 13:29:44;;;;;;;0.60;0.60;;;;;;;;;;4975554;29;20191;-75
2023/01/11 13:32:19;;;;;;;0.60;0.60;;;;;;;;;;4997094;23;20238;-74
2023/01/11 13:34:48;;;;;;;0.50;0.50;;;;;;;;;;4963871;28;20677;-75
2023/01/11 13:37:14;;;;;;;0.50;0.50;;;;;;;;;;4951156;29;20276;-74
2023/01/11 13:39:45;;;;;;;0.70;0.70;;;;;;;;;;4951321;29;20186;-75
2023/01/11 13:42:31;;;;;;;0.60;0.60;;;;;;;;;;4950696;29;20185;-74
2023/01/11 13:45:00;;;;;;;0.70;0.70;;;;;;;;;;4950772;28;20266;-75
2023/01/11 13:47:33;;;;;;;0.60;0.60;;;;;;;;;;4952229;29;20207;-72
2023/01/11 13:50:02;;;;;;;0.60;0.60;;;;;;;;;;4953360;28;20214;-72
2023/01/11 13:52:41;;;;;;;0.63;0.63;;;;;;;;;;4956084;29;20577;-73
2023/01/11 13:55:12;;;;;;;0.60;0.60;;;;;;;;;;4953361;28;20695;-72
2023/01/11 13:57:51;;;;;;;0.70;0.70;;;;;;;;;;4958428;29;20231;-72
2023/01/11 14:00:30;;;;;;;0.70;0.70;;;;;;;;;;4952459;29;20691;-73
2023/01/11 14:03:05;;;;;;;0.70;0.70;;;;;;;;;;4953856;29;20186;-73
2023/01/11 14:05:46;;;;;;;0.63;0.63;;;;;;;;;;4949670;28;20212;-73
2023/01/11 14:08:21;;;;;;;0.73;0.73;;;;;;;;;;4956255;28;20494;-74
2023/01/11 14:10:50;;;;;;;0.70;0.70;;;;;;;;;;4958129;28;20252;-73
2023/01/11 14:16:25;;;;;;;0.60;0.60;;;;;;;;;;4954421;28;20596;-73
2023/01/11 14:19:14;;;;;;;0.50;0.50;;;;;;;;;;4946999;29;20183;-73
2023/01/11 14:21:48;;;;;;;0.60;0.60;;;;;;;;;;4947681;29;20191;-73
2023/01/11 14:24:16;;;;;;;0.70;0.70;;;;;;;;;;4955121;28;20245;-73
2023/01/11 14:26:48;;;;;;;0.70;0.70;;;;;;;;;;4955407;29;20190;-73
2023/01/11 14:29:24;;;;;;;0.70;0.70;;;;;;;;;;4955389;28;20199;-73
2023/01/11 14:31:53;;;;;;;0.70;0.70;;;;;;;;;;4954889;28;20762;-73
2023/01/11 14:34:25;;;;;;;0.70;0.70;;;;;;;;;;4954545;28;20277;-74
2023/01/11 14:37:15;;;;;;;0.67;0.67;;;;;;;;;;4955318;29;20183;-73
2023/01/11 14:39:59;;;;;;;0.67;0.67;;;;;;;;;;4955326;29;20178;-73
2023/01/11 14:42:44;;;;;;;0.60;0.60;;;;;;;;;;4954896;29;20673;-74
2023/01/11 14:45:28;;;;;;;0.60;0.60;;;;;;;;;;4955327;28;20316;-73
2023/01/11 14:47:54;;;;;;;0.70;0.70;;;;;;;;;;4954958;29;20931;-73
2023/01/11 14:50:39;;;;;;;0.50;0.50;;;;;;;;;;4954997;29;20230;-73
2023/01/11 14:53:07;;;;;;;0.60;0.60;;;;;;;;;;4954303;28;20208;-73
2023/01/11 14:55:36;;;;;;;0.60;0.60;;;;;;;;;;4954669;28;20199;-73
2023/01/11 14:58:02;;;;;;;0.60;0.60;;;;;;;;;;4954573;28;20277;-73
2023/01/11 15:00:28;;;;;;;0.70;0.70;;;;;;;;;;4949408;28;20291;-75
2023/01/11 15:03:00;;;;;;;0.70;0.70;;;;;;;;;;4964203;28;20209;-75
2023/01/11 15:05:32;;;;;;;0.60;0.60;;;;;;;;;;4974518;28;20194;-74
2023/01/11 15:08:19;;;;;;;0.57;0.57;;;;;;;;;;4974599;28;20182;-75
2023/01/11 15:10:51;;;;;;;0.60;0.60;;;;;;;;;;4974670;28;20229;-75
2023/01/11 15:13:33;;;;;;;0.60;0.60;;;;;;;;;;4974089;28;20229;-75
2023/01/11 15:18:55;;;;;;;0.70;0.70;;;;;;;;;;4974546;28;20193;-75
2023/01/11 15:21:22;;;;;;;0.70;0.70;;;;;;;;;;4974557;28;20188;-75
2023/01/11 15:23:56;;;;;;;0.70;0.70;;;;;;;;;;4974036;28;20185;-76
2023/01/11 15:26:23;;;;;;;0.70;0.70;;;;;;;;;;4974362;28;20215;-74
2023/01/11 15:28:57;;;;;;;0.70;0.70;;;;;;;;;;4974045;28;20675;-75
2023/01/11 15:31:52;;;;;;;0.60;0.60;;;;;;;;;;4962402;28;20218;-74